sensor_id;sensor_type;location;lat;lon;timestamp;pressure;altitude;pressure_sealevel;temperature;humidity
23229;BME280;11783;50.350;6.576;2023-06-14T00:00:13;96049.63;;;15.92;50.36
23229;BME280;11783;50.350;6.576;2023-06-14T00:02:39;96058.00;;;15.86;51.18
23229;BME280;11783;50.350;6.576;2023-06-14T00:05:07;96055.25;;;15.62;51.59
23229;BME280;11783;50.350;6.576;2023-06-14T00:07:38;96058.19;;;15.60;51.59
23229;BME280;11783;50.350;6.576;2023-06-14T00:10:08;96056.06;;;15.62;50.95
23229;BME280;11783;50.350;6.576;2023-06-14T00:12:34;96059.25;;;15.59;51.11
23229;BME280;11783;50.350;6.576;2023-06-14T00:15:00;96055.00;;;15.53;52.19
23229;BME280;11783;50.350;6.576;2023-06-14T00:17:28;96053.44;;;15.47;51.98
23229;BME280;11783;50.350;6.576;2023-06-14T00:19:56;96052.38;;;15.43;51.30
23229;BME280;11783;50.350;6.576;2023-06-14T00:22:22;96052.13;;;15.39;51.56
23229;BME280;11783;50.350;6.576;2023-06-14T00:24:50;96044.91;;;15.40;52.13
23229;BME280;11783;50.350;6.576;2023-06-14T00:27:15;96045.22;;;15.33;52.60
23229;BME280;11783;50.350;6.576;2023-06-14T00:29:40;96051.22;;;15.15;52.67
23229;BME280;11783;50.350;6.576;2023-06-14T00:32:06;96056.84;;;15.13;52.23
23229;BME280;11783;50.350;6.576;2023-06-14T00:34:32;96047.72;;;15.14;53.27
23229;BME280;11783;50.350;6.576;2023-06-14T00:36:58;96051.53;;;15.08;53.21
23229;BME280;11783;50.350;6.576;2023-06-14T00:39:23;96053.16;;;14.99;53.73
23229;BME280;11783;50.350;6.576;2023-06-14T00:41:48;96047.59;;;14.85;54.15
23229;BME280;11783;50.350;6.576;2023-06-14T00:44:16;96052.75;;;14.67;54.71
23229;BME280;11783;50.350;6.576;2023-06-14T00:46:42;96045.59;;;14.52;55.22
23229;BME280;11783;50.350;6.576;2023-06-14T00:49:08;96054.69;;;14.36;56.52
23229;BME280;11783;50.350;6.576;2023-06-14T00:51:33;96058.44;;;14.24;56.97
23229;BME280;11783;50.350;6.576;2023-06-14T00:53:59;96050.97;;;14.11;56.93
23229;BME280;11783;50.350;6.576;2023-06-14T00:56:26;96055.28;;;14.02;57.62
23229;BME280;11783;50.350;6.576;2023-06-14T00:58:52;96054.19;;;13.88;58.37
23229;BME280;11783;50.350;6.576;2023-06-14T01:01:18;96056.09;;;13.77;58.37
23229;BME280;11783;50.350;6.576;2023-06-14T01:03:43;96064.63;;;13.69;58.43
23229;BME280;11783;50.350;6.576;2023-06-14T01:08:51;96052.84;;;13.55;60.21
23229;BME280;11783;50.350;6.576;2023-06-14T01:11:26;96055.25;;;13.46;60.29
23229;BME280;11783;50.350;6.576;2023-06-14T01:13:55;96057.34;;;13.34;60.53
23229;BME280;11783;50.350;6.576;2023-06-14T01:16:21;96056.03;;;13.21;60.23
23229;BME280;11783;50.350;6.576;2023-06-14T01:18:47;96054.34;;;13.15;60.65
23229;BME280;11783;50.350;6.576;2023-06-14T01:21:24;96055.41;;;13.09;61.14
23229;BME280;11783;50.350;6.576;2023-06-14T01:23:51;96062.88;;;13.07;60.28
23229;BME280;11783;50.350;6.576;2023-06-14T01:26:21;96059.41;;;13.01;61.61
23229;BME280;11783;50.350;6.576;2023-06-14T01:28:47;96054.03;;;12.96;60.07
23229;BME280;11783;50.350;6.576;2023-06-14T01:31:19;96052.69;;;12.94;60.94
23229;BME280;11783;50.350;6.576;2023-06-14T01:33:48;96055.06;;;12.85;61.69
23229;BME280;11783;50.350;6.576;2023-06-14T01:36:14;96047.28;;;12.79;61.89
23229;BME280;11783;50.350;6.576;2023-06-14T01:38:41;96052.09;;;12.77;61.92
23229;BME280;11783;50.350;6.576;2023-06-14T01:41:08;96050.50;;;12.76;61.69
23229;BME280;11783;50.350;6.576;2023-06-14T01:43:35;96050.22;;;12.77;60.59
23229;BME280;11783;50.350;6.576;2023-06-14T01:46:00;96060.09;;;12.77;61.57
23229;BME280;11783;50.350;6.576;2023-06-14T01:48:27;96059.28;;;12.76;62.07
23229;BME280;11783;50.350;6.576;2023-06-14T01:50:52;96058.75;;;12.74;60.96
23229;BME280;11783;50.350;6.576;2023-06-14T01:53:17;96058.47;;;12.65;61.74
23229;BME280;11783;50.350;6.576;2023-06-14T01:55:43;96052.53;;;12.58;62.19
23229;BME280;11783;50.350;6.576;2023-06-14T01:58:10;96054.44;;;12.63;62.08
23229;BME280;11783;50.350;6.576;2023-06-14T02:00:35;96062.69;;;12.61;61.58
23229;BME280;11783;50.350;6.576;2023-06-14T02:03:01;96052.53;;;12.58;62.06
23229;BME280;11783;50.350;6.576;2023-06-14T02:05:29;96062.38;;;12.48;62.56
23229;BME280;11783;50.350;6.576;2023-06-14T02:07:55;96056.44;;;12.35;63.50
23229;BME280;11783;50.350;6.576;2023-06-14T02:10:20;96059.53;;;12.22;63.63
23229;BME280;11783;50.350;6.576;2023-06-14T02:12:46;96063.22;;;12.11;63.94
23229;BME280;11783;50.350;6.576;2023-06-14T02:15:12;96059.69;;;12.05;63.01
23229;BME280;11783;50.350;6.576;2023-06-14T02:17:43;96061.00;;;12.03;64.20
23229;BME280;11783;50.350;6.576;2023-06-14T02:20:10;96058.84;;;11.95;63.43
23229;BME280;11783;50.350;6.576;2023-06-14T02:22:35;96066.56;;;11.96;63.57
23229;BME280;11783;50.350;6.576;2023-06-14T02:25:01;96061.81;;;12.03;62.09
23229;BME280;11783;50.350;6.576;2023-06-14T02:27:26;96073.31;;;12.09;62.34
23229;BME280;11783;50.350;6.576;2023-06-14T02:29:51;96057.63;;;12.12;62.27
23229;BME280;11783;50.350;6.576;2023-06-14T02:32:17;96067.75;;;12.16;62.20
23229;BME280;11783;50.350;6.576;2023-06-14T02:34:42;96068.31;;;12.18;61.50
23229;BME280;11783;50.350;6.576;2023-06-14T02:37:07;96072.84;;;12.17;61.31
23229;BME280;11783;50.350;6.576;2023-06-14T02:39:33;96067.25;;;12.19;61.86
23229;BME280;11783;50.350;6.576;2023-06-14T02:41:58;96072.03;;;12.17;61.55
23229;BME280;11783;50.350;6.576;2023-06-14T02:44:25;96072.81;;;12.12;62.71
23229;BME280;11783;50.350;6.576;2023-06-14T02:46:53;96072.22;;;12.05;62.65
23229;BME280;11783;50.350;6.576;2023-06-14T02:49:21;96072.72;;;12.02;62.11
23229;BME280;11783;50.350;6.576;2023-06-14T02:51:46;96072.44;;;11.98;62.76
23229;BME280;11783;50.350;6.576;2023-06-14T02:54:11;96074.53;;;11.91;63.26
23229;BME280;11783;50.350;6.576;2023-06-14T02:56:37;96076.63;;;11.89;63.37
23229;BME280;11783;50.350;6.576;2023-06-14T02:59:02;96073.91;;;11.84;63.77
23229;BME280;11783;50.350;6.576;2023-06-14T03:01:28;96075.44;;;11.75;65.25
23229;BME280;11783;50.350;6.576;2023-06-14T03:04:00;96073.50;;;11.70;64.51
23229;BME280;11783;50.350;6.576;2023-06-14T03:06:27;96079.81;;;11.59;65.51
23229;BME280;11783;50.350;6.576;2023-06-14T03:08:55;96083.94;;;11.45;66.04
23229;BME280;11783;50.350;6.576;2023-06-14T03:11:22;96081.41;;;11.33;66.05
23229;BME280;11783;50.350;6.576;2023-06-14T03:13:47;96086.19;;;11.31;65.91
23229;BME280;11783;50.350;6.576;2023-06-14T03:16:12;96082.16;;;11.29;65.73
23229;BME280;11783;50.350;6.576;2023-06-14T03:18:38;96089.09;;;11.30;64.74
23229;BME280;11783;50.350;6.576;2023-06-14T03:21:03;96087.22;;;11.30;65.24
23229;BME280;11783;50.350;6.576;2023-06-14T03:23:29;96089.91;;;11.30;65.54
23229;BME280;11783;50.350;6.576;2023-06-14T03:25:54;96085.59;;;11.24;66.59
23229;BME280;11783;50.350;6.576;2023-06-14T03:28:21;96094.06;;;11.21;65.97
23229;BME280;11783;50.350;6.576;2023-06-14T03:30:46;96087.88;;;11.15;65.79
23229;BME280;11783;50.350;6.576;2023-06-14T03:33:11;96087.06;;;11.15;66.33
23229;BME280;11783;50.350;6.576;2023-06-14T03:35:37;96094.50;;;11.13;66.65
23229;BME280;11783;50.350;6.576;2023-06-14T03:38:02;96090.19;;;11.07;67.39
23229;BME280;11783;50.350;6.576;2023-06-14T03:40:29;96092.72;;;10.97;68.35
23229;BME280;11783;50.350;6.576;2023-06-14T03:42:54;96094.22;;;10.87;69.15
23229;BME280;11783;50.350;6.576;2023-06-14T03:45:21;96103.66;;;10.78;69.38
23229;BME280;11783;50.350;6.576;2023-06-14T03:47:46;96102.00;;;10.72;69.32
23229;BME280;11783;50.350;6.576;2023-06-14T03:50:12;96106.19;;;10.68;69.79
23229;BME280;11783;50.350;6.576;2023-06-14T03:52:37;96095.03;;;10.66;68.65
23229;BME280;11783;50.350;6.576;2023-06-14T03:55:03;96102.81;;;10.73;67.14
23229;BME280;11783;50.350;6.576;2023-06-14T03:57:29;96107.94;;;10.79;67.97
23229;BME280;11783;50.350;6.576;2023-06-14T03:59:55;96105.28;;;10.79;69.40
23229;BME280;11783;50.350;6.576;2023-06-14T04:02:20;96104.41;;;10.74;69.50
23229;BME280;11783;50.350;6.576;2023-06-14T04:04:46;96108.88;;;10.68;70.26
23229;BME280;11783;50.350;6.576;2023-06-14T04:07:12;96101.63;;;10.64;69.50
23229;BME280;11783;50.350;6.576;2023-06-14T04:09:38;96102.44;;;10.64;68.60
23229;BME280;11783;50.350;6.576;2023-06-14T04:12:05;96113.06;;;10.64;67.74
23229;BME280;11783;50.350;6.576;2023-06-14T04:14:31;96113.69;;;10.71;67.61
23229;BME280;11783;50.350;6.576;2023-06-14T04:16:58;96107.31;;;10.72;68.42
23229;BME280;11783;50.350;6.576;2023-06-14T04:19:24;96124.00;;;10.68;69.54
23229;BME280;11783;50.350;6.576;2023-06-14T04:21:50;96115.72;;;10.64;70.19
23229;BME280;11783;50.350;6.576;2023-06-14T04:24:15;96124.91;;;10.56;70.97
23229;BME280;11783;50.350;6.576;2023-06-14T04:26:42;96106.19;;;10.46;71.57
23229;BME280;11783;50.350;6.576;2023-06-14T04:29:10;96104.47;;;10.40;71.97
23229;BME280;11783;50.350;6.576;2023-06-14T04:31:40;96114.25;;;10.35;72.57
23229;BME280;11783;50.350;6.576;2023-06-14T04:34:05;96113.13;;;10.30;72.97
23229;BME280;11783;50.350;6.576;2023-06-14T04:36:33;96108.81;;;10.24;73.79
23229;BME280;11783;50.350;6.576;2023-06-14T04:39:00;96114.22;;;10.18;73.66
23229;BME280;11783;50.350;6.576;2023-06-14T04:41:28;96119.22;;;10.14;74.67
23229;BME280;11783;50.350;6.576;2023-06-14T04:43:53;96109.66;;;10.13;74.74
23229;BME280;11783;50.350;6.576;2023-06-14T04:46:19;96125.28;;;10.10;75.25
23229;BME280;11783;50.350;6.576;2023-06-14T04:48:45;96117.00;;;10.06;75.73
23229;BME280;11783;50.350;6.576;2023-06-14T04:51:11;96130.03;;;10.08;75.38
23229;BME280;11783;50.350;6.576;2023-06-14T04:53:36;96127.13;;;10.09;75.85
23229;BME280;11783;50.350;6.576;2023-06-14T04:56:02;96130.59;;;10.10;75.94
23229;BME280;11783;50.350;6.576;2023-06-14T04:58:29;96127.94;;;10.10;75.85
23229;BME280;11783;50.350;6.576;2023-06-14T05:00:55;96132.44;;;10.09;75.95
23229;BME280;11783;50.350;6.576;2023-06-14T05:03:24;96136.22;;;10.13;75.11
23229;BME280;11783;50.350;6.576;2023-06-14T05:05:50;96135.16;;;10.14;76.20
23229;BME280;11783;50.350;6.576;2023-06-14T05:08:16;96128.31;;;10.18;75.75
23229;BME280;11783;50.350;6.576;2023-06-14T05:10:41;96140.66;;;10.24;74.38
23229;BME280;11783;50.350;6.576;2023-06-14T05:13:07;96133.03;;;10.28;75.72
23229;BME280;11783;50.350;6.576;2023-06-14T05:15:33;96136.00;;;10.31;76.15
23229;BME280;11783;50.350;6.576;2023-06-14T05:17:58;96138.94;;;10.35;76.33
23229;BME280;11783;50.350;6.576;2023-06-14T05:20:24;96127.78;;;10.33;77.29
23229;BME280;11783;50.350;6.576;2023-06-14T05:22:50;96138.09;;;10.29;77.89
23229;BME280;11783;50.350;6.576;2023-06-14T05:25:17;96132.03;;;10.34;76.68
23229;BME280;11783;50.350;6.576;2023-06-14T05:27:42;96129.94;;;10.36;75.86
23229;BME280;11783;50.350;6.576;2023-06-14T05:30:08;96127.38;;;10.41;75.32
23229;BME280;11783;50.350;6.576;2023-06-14T05:32:34;96131.47;;;10.49;73.51
23229;BME280;11783;50.350;6.576;2023-06-14T05:34:59;96135.88;;;10.60;73.50
23229;BME280;11783;50.350;6.576;2023-06-14T05:37:25;96136.81;;;10.71;74.53
23229;BME280;11783;50.350;6.576;2023-06-14T05:39:50;96136.94;;;10.81;71.70
23229;BME280;11783;50.350;6.576;2023-06-14T05:42:16;96125.56;;;10.85;71.73
23229;BME280;11783;50.350;6.576;2023-06-14T05:44:41;96141.81;;;10.89;72.57
23229;BME280;11783;50.350;6.576;2023-06-14T05:47:06;96141.31;;;10.92;72.27
23229;BME280;11783;50.350;6.576;2023-06-14T05:49:32;96141.16;;;10.99;72.24
23229;BME280;11783;50.350;6.576;2023-06-14T05:51:57;96140.41;;;11.03;73.95
23229;BME280;11783;50.350;6.576;2023-06-14T05:54:22;96140.16;;;11.05;73.62
23229;BME280;11783;50.350;6.576;2023-06-14T05:56:48;96135.16;;;11.08;74.95
23229;BME280;11783;50.350;6.576;2023-06-14T05:59:13;96135.69;;;11.10;74.10
23229;BME280;11783;50.350;6.576;2023-06-14T06:01:38;96140.03;;;11.16;73.80
23229;BME280;11783;50.350;6.576;2023-06-14T06:04:05;96139.78;;;11.18;73.03
23229;BME280;11783;50.350;6.576;2023-06-14T06:06:31;96141.16;;;11.20;71.08
23229;BME280;11783;50.350;6.576;2023-06-14T06:08:57;96138.75;;;11.19;71.80
23229;BME280;11783;50.350;6.576;2023-06-14T06:11:22;96141.41;;;11.19;72.25
23229;BME280;11783;50.350;6.576;2023-06-14T06:13:48;96140.34;;;11.20;70.89
23229;BME280;11783;50.350;6.576;2023-06-14T06:16:14;96140.16;;;11.27;72.46
23229;BME280;11783;50.350;6.576;2023-06-14T06:18:39;96149.19;;;11.26;71.96
23229;BME280;11783;50.350;6.576;2023-06-14T06:21:05;96144.47;;;11.33;73.61
23229;BME280;11783;50.350;6.576;2023-06-14T06:23:31;96151.50;;;11.44;74.02
23229;BME280;11783;50.350;6.576;2023-06-14T06:25:56;96145.97;;;11.50;73.38
23229;BME280;11783;50.350;6.576;2023-06-14T06:28:21;96145.81;;;11.57;74.29
23229;BME280;11783;50.350;6.576;2023-06-14T06:30:47;96147.72;;;11.62;73.33
23229;BME280;11783;50.350;6.576;2023-06-14T06:33:12;96150.41;;;11.67;75.38
23229;BME280;11783;50.350;6.576;2023-06-14T06:35:39;96151.69;;;11.86;79.42
23229;BME280;11783;50.350;6.576;2023-06-14T06:38:04;96155.50;;;11.95;79.80
23229;BME280;11783;50.350;6.576;2023-06-14T06:40:30;96158.31;;;12.10;81.52
23229;BME280;11783;50.350;6.576;2023-06-14T06:42:55;96149.84;;;12.19;82.70
23229;BME280;11783;50.350;6.576;2023-06-14T06:45:20;96157.97;;;12.39;83.83
23229;BME280;11783;50.350;6.576;2023-06-14T06:47:46;96159.94;;;12.49;84.68
23229;BME280;11783;50.350;6.576;2023-06-14T06:50:11;96157.13;;;12.65;85.35
23229;BME280;11783;50.350;6.576;2023-06-14T06:52:37;96159.81;;;12.76;84.45
23229;BME280;11783;50.350;6.576;2023-06-14T06:55:02;96157.50;;;12.89;83.78
23229;BME280;11783;50.350;6.576;2023-06-14T06:57:28;96163.13;;;12.98;81.58
23229;BME280;11783;50.350;6.576;2023-06-14T06:59:54;96163.22;;;13.13;78.98
23229;BME280;11783;50.350;6.576;2023-06-14T07:02:20;96163.31;;;13.28;79.95
23229;BME280;11783;50.350;6.576;2023-06-14T07:04:45;96166.31;;;13.42;80.20
23229;BME280;11783;50.350;6.576;2023-06-14T07:07:10;96172.19;;;13.49;75.74
23229;BME280;11783;50.350;6.576;2023-06-14T07:09:36;96162.88;;;13.62;76.16
23229;BME280;11783;50.350;6.576;2023-06-14T07:12:01;96170.94;;;13.77;76.01
23229;BME280;11783;50.350;6.576;2023-06-14T07:14:26;96176.28;;;13.87;73.10
23229;BME280;11783;50.350;6.576;2023-06-14T07:16:52;96169.38;;;14.02;73.59
23229;BME280;11783;50.350;6.576;2023-06-14T07:19:17;96173.09;;;14.11;72.80
23229;BME280;11783;50.350;6.576;2023-06-14T07:21:42;96170.72;;;14.24;71.83
23229;BME280;11783;50.350;6.576;2023-06-14T07:24:08;96181.69;;;14.38;71.00
23229;BME280;11783;50.350;6.576;2023-06-14T07:26:34;96177.44;;;14.52;70.00
23229;BME280;11783;50.350;6.576;2023-06-14T07:29:00;96182.47;;;14.79;69.85
23229;BME280;11783;50.350;6.576;2023-06-14T07:31:25;96173.06;;;14.97;66.12
23229;BME280;11783;50.350;6.576;2023-06-14T07:33:51;96174.03;;;15.22;66.98
23229;BME280;11783;50.350;6.576;2023-06-14T07:36:16;96186.25;;;15.53;65.61
23229;BME280;11783;50.350;6.576;2023-06-14T07:38:43;96177.81;;;15.80;64.88
23229;BME280;11783;50.350;6.576;2023-06-14T07:41:09;96184.06;;;16.10;63.66
23229;BME280;11783;50.350;6.576;2023-06-14T07:43:36;96179.59;;;16.34;64.72
23229;BME280;11783;50.350;6.576;2023-06-14T07:46:02;96182.88;;;16.60;62.69
23229;BME280;11783;50.350;6.576;2023-06-14T07:48:28;96181.34;;;16.83;61.57
23229;BME280;11783;50.350;6.576;2023-06-14T07:50:53;96179.75;;;17.11;61.89
23229;BME280;11783;50.350;6.576;2023-06-14T07:53:18;96182.41;;;17.35;57.63
23229;BME280;11783;50.350;6.576;2023-06-14T07:55:44;96177.28;;;17.57;55.96
23229;BME280;11783;50.350;6.576;2023-06-14T07:58:09;96176.19;;;17.82;57.21
23229;BME280;11783;50.350;6.576;2023-06-14T08:00:36;96172.34;;;18.07;54.42
23229;BME280;11783;50.350;6.576;2023-06-14T08:03:01;96171.94;;;18.32;53.96
23229;BME280;11783;50.350;6.576;2023-06-14T08:05:28;96174.81;;;18.55;52.96
23229;BME280;11783;50.350;6.576;2023-06-14T08:07:53;96174.13;;;18.82;51.62
23229;BME280;11783;50.350;6.576;2023-06-14T08:10:19;96176.03;;;19.09;52.09
23229;BME280;11783;50.350;6.576;2023-06-14T08:12:45;96173.75;;;19.29;52.33
23229;BME280;11783;50.350;6.576;2023-06-14T08:15:10;96179.78;;;19.54;52.03
23229;BME280;11783;50.350;6.576;2023-06-14T08:17:36;96177.16;;;19.76;51.25
23229;BME280;11783;50.350;6.576;2023-06-14T08:20:02;96180.81;;;19.94;49.50
23229;BME280;11783;50.350;6.576;2023-06-14T08:22:29;96168.00;;;20.00;45.96
23229;BME280;11783;50.350;6.576;2023-06-14T08:24:57;96172.38;;;20.09;46.29
23229;BME280;11783;50.350;6.576;2023-06-14T08:27:23;96174.53;;;20.21;45.23
23229;BME280;11783;50.350;6.576;2023-06-14T08:29:48;96174.28;;;20.31;45.47
23229;BME280;11783;50.350;6.576;2023-06-14T08:32:13;96176.34;;;20.48;47.92
23229;BME280;11783;50.350;6.576;2023-06-14T08:34:39;96177.13;;;20.71;44.87
23229;BME280;11783;50.350;6.576;2023-06-14T08:37:04;96179.44;;;20.86;44.45
23229;BME280;11783;50.350;6.576;2023-06-14T08:39:30;96168.41;;;21.05;44.51
23229;BME280;11783;50.350;6.576;2023-06-14T08:41:56;96158.91;;;21.16;43.75
23229;BME280;11783;50.350;6.576;2023-06-14T08:44:22;96163.44;;;21.29;43.97
23229;BME280;11783;50.350;6.576;2023-06-14T08:46:48;96163.50;;;21.46;41.67
23229;BME280;11783;50.350;6.576;2023-06-14T08:49:16;96170.34;;;21.53;43.40
23229;BME280;11783;50.350;6.576;2023-06-14T08:51:42;96169.75;;;21.64;41.43
23229;BME280;11783;50.350;6.576;2023-06-14T08:54:09;96170.44;;;21.79;43.25
23229;BME280;11783;50.350;6.576;2023-06-14T08:56:38;96165.66;;;21.93;41.24
23229;BME280;11783;50.350;6.576;2023-06-14T08:59:03;96171.38;;;21.91;40.88
23229;BME280;11783;50.350;6.576;2023-06-14T09:01:33;96174.59;;;22.02;42.42
23229;BME280;11783;50.350;6.576;2023-06-14T09:03:59;96175.28;;;22.16;40.28
23229;BME280;11783;50.350;6.576;2023-06-14T09:06:25;96172.72;;;22.37;38.40
23229;BME280;11783;50.350;6.576;2023-06-14T09:08:50;96172.69;;;22.46;38.56
23229;BME280;11783;50.350;6.576;2023-06-14T09:11:18;96163.94;;;22.49;37.77
23229;BME280;11783;50.350;6.576;2023-06-14T09:13:47;96170.31;;;22.44;37.35
23229;BME280;11783;50.350;6.576;2023-06-14T09:16:13;96166.97;;;22.56;40.42
23229;BME280;11783;50.350;6.576;2023-06-14T09:18:40;96170.78;;;22.72;39.36
23229;BME280;11783;50.350;6.576;2023-06-14T09:21:10;96178.44;;;22.87;38.50
23229;BME280;11783;50.350;6.576;2023-06-14T09:23:40;96170.22;;;23.05;38.65
23229;BME280;11783;50.350;6.576;2023-06-14T09:28:33;96170.47;;;23.29;37.98
23229;BME280;11783;50.350;6.576;2023-06-14T09:30:58;96169.06;;;23.52;37.69
23229;BME280;11783;50.350;6.576;2023-06-14T09:33:25;96167.44;;;23.60;35.34
23229;BME280;11783;50.350;6.576;2023-06-14T09:35:51;96177.50;;;23.60;34.42
23229;BME280;11783;50.350;6.576;2023-06-14T09:38:17;96178.28;;;23.69;34.53
23229;BME280;11783;50.350;6.576;2023-06-14T09:40:43;96177.16;;;23.70;35.28
23229;BME280;11783;50.350;6.576;2023-06-14T09:43:08;96186.31;;;23.86;33.91
23229;BME280;11783;50.350;6.576;2023-06-14T09:45:35;96190.63;;;23.87;32.62
23229;BME280;11783;50.350;6.576;2023-06-14T09:48:01;96194.13;;;23.88;33.41
23229;BME280;11783;50.350;6.576;2023-06-14T09:50:27;96186.78;;;23.88;34.21
23229;BME280;11783;50.350;6.576;2023-06-14T09:52:57;96194.84;;;23.97;33.29
23229;BME280;11783;50.350;6.576;2023-06-14T09:55:27;96189.84;;;24.07;33.18
23229;BME280;11783;50.350;6.576;2023-06-14T09:57:56;96195.94;;;24.25;33.51
23229;BME280;11783;50.350;6.576;2023-06-14T10:00:23;96192.03;;;24.35;32.02
23229;BME280;11783;50.350;6.576;2023-06-14T10:02:54;96189.41;;;24.47;33.27
23229;BME280;11783;50.350;6.576;2023-06-14T10:05:23;96193.53;;;24.65;33.62
23229;BME280;11783;50.350;6.576;2023-06-14T10:07:56;96186.91;;;24.75;31.70
23229;BME280;11783;50.350;6.576;2023-06-14T10:10:23;96192.97;;;24.60;32.38
23229;BME280;11783;50.350;6.576;2023-06-14T10:12:49;96195.59;;;24.68;32.55
23229;BME280;11783;50.350;6.576;2023-06-14T10:15:20;96178.59;;;24.71;31.95
23229;BME280;11783;50.350;6.576;2023-06-14T10:18:03;96192.34;;;24.75;32.97
23229;BME280;11783;50.350;6.576;2023-06-14T10:20:41;96194.50;;;24.82;31.74
23229;BME280;11783;50.350;6.576;2023-06-14T10:23:14;96185.28;;;24.95;32.11
23229;BME280;11783;50.350;6.576;2023-06-14T10:25:42;96190.28;;;25.05;31.79
23229;BME280;11783;50.350;6.576;2023-06-14T10:33:30;96189.41;;;25.25;31.30
23229;BME280;11783;50.350;6.576;2023-06-14T10:39:09;96189.34;;;25.34;30.89
23229;BME280;11783;50.350;6.576;2023-06-14T10:41:37;96178.34;;;25.30;30.23
23229;BME280;11783;50.350;6.576;2023-06-14T10:46:55;96183.09;;;25.46;30.35
23229;BME280;11783;50.350;6.576;2023-06-14T10:49:44;96181.31;;;25.74;30.65
23229;BME280;11783;50.350;6.576;2023-06-14T10:52:16;96184.63;;;25.68;30.19
23229;BME280;11783;50.350;6.576;2023-06-14T10:57:47;96180.13;;;26.00;28.76
23229;BME280;11783;50.350;6.576;2023-06-14T11:00:20;96184.59;;;25.92;28.51
23229;BME280;11783;50.350;6.576;2023-06-14T11:05:54;96185.38;;;26.05;29.80
23229;BME280;11783;50.350;6.576;2023-06-14T11:08:40;96184.38;;;26.37;30.22
23229;BME280;11783;50.350;6.576;2023-06-14T11:11:12;96185.50;;;26.48;28.63
23229;BME280;11783;50.350;6.576;2023-06-14T11:13:39;96182.59;;;26.41;28.41
23229;BME280;11783;50.350;6.576;2023-06-14T11:16:13;96188.63;;;26.63;28.93
23229;BME280;11783;50.350;6.576;2023-06-14T11:18:39;96178.34;;;26.72;28.58
23229;BME280;11783;50.350;6.576;2023-06-14T11:21:05;96176.34;;;26.69;27.74
23229;BME280;11783;50.350;6.576;2023-06-14T11:23:30;96168.72;;;26.46;28.43
23229;BME280;11783;50.350;6.576;2023-06-14T11:25:56;96170.63;;;26.74;28.74
23229;BME280;11783;50.350;6.576;2023-06-14T11:28:21;96181.63;;;26.77;27.88
23229;BME280;11783;50.350;6.576;2023-06-14T11:30:47;96180.63;;;26.70;27.78
23229;BME280;11783;50.350;6.576;2023-06-14T11:33:17;96189.22;;;26.56;27.06
23229;BME280;11783;50.350;6.576;2023-06-14T11:35:43;96188.31;;;26.52;27.60
23229;BME280;11783;50.350;6.576;2023-06-14T11:38:10;96188.06;;;26.57;27.98
23229;BME280;11783;50.350;6.576;2023-06-14T11:40:37;96190.69;;;26.53;28.02
23229;BME280;11783;50.350;6.576;2023-06-14T11:43:03;96183.09;;;26.75;29.12
23229;BME280;11783;50.350;6.576;2023-06-14T11:45:30;96185.78;;;26.87;28.38
23229;BME280;11783;50.350;6.576;2023-06-14T11:47:57;96188.50;;;26.87;26.22
23229;BME280;11783;50.350;6.576;2023-06-14T11:50:22;96176.16;;;26.77;26.50
23229;BME280;11783;50.350;6.576;2023-06-14T11:52:59;96184.47;;;26.81;26.85
23229;BME280;11783;50.350;6.576;2023-06-14T11:55:29;96185.34;;;26.85;26.10
23229;BME280;11783;50.350;6.576;2023-06-14T11:57:54;96177.66;;;26.75;25.81
23229;BME280;11783;50.350;6.576;2023-06-14T12:00:24;96181.00;;;26.68;26.79
23229;BME280;11783;50.350;6.576;2023-06-14T12:02:53;96174.50;;;26.73;25.55
23229;BME280;11783;50.350;6.576;2023-06-14T12:05:21;96186.47;;;26.56;25.56
23229;BME280;11783;50.350;6.576;2023-06-14T12:07:47;96173.41;;;26.62;26.90
23229;BME280;11783;50.350;6.576;2023-06-14T12:10:14;96176.56;;;26.36;27.30
23229;BME280;11783;50.350;6.576;2023-06-14T12:12:40;96176.44;;;26.72;26.90
23229;BME280;11783;50.350;6.576;2023-06-14T12:15:09;96186.44;;;26.96;25.88
23229;BME280;11783;50.350;6.576;2023-06-14T12:17:37;96178.69;;;26.98;26.03
23229;BME280;11783;50.350;6.576;2023-06-14T12:20:09;96177.59;;;26.87;26.40
23229;BME280;11783;50.350;6.576;2023-06-14T12:22:55;96185.72;;;26.99;25.48
23229;BME280;11783;50.350;6.576;2023-06-14T12:25:33;96184.00;;;27.07;25.72
23229;BME280;11783;50.350;6.576;2023-06-14T12:28:08;96176.50;;;26.76;24.78
23229;BME280;11783;50.350;6.576;2023-06-14T12:30:34;96183.59;;;26.93;24.73
23229;BME280;11783;50.350;6.576;2023-06-14T12:33:01;96176.78;;;27.14;24.57
23229;BME280;11783;50.350;6.576;2023-06-14T12:35:27;96173.38;;;27.18;24.08
23229;BME280;11783;50.350;6.576;2023-06-14T12:37:52;96175.56;;;27.28;24.49
23229;BME280;11783;50.350;6.576;2023-06-14T12:40:17;96174.06;;;27.30;24.26
23229;BME280;11783;50.350;6.576;2023-06-14T12:42:44;96177.94;;;27.29;24.09
23229;BME280;11783;50.350;6.576;2023-06-14T12:45:12;96175.41;;;27.21;23.82
23229;BME280;11783;50.350;6.576;2023-06-14T12:47:37;96184.09;;;27.10;24.00
23229;BME280;11783;50.350;6.576;2023-06-14T12:50:03;96180.13;;;27.08;25.59
23229;BME280;11783;50.350;6.576;2023-06-14T12:52:28;96183.28;;;27.10;24.19
23229;BME280;11783;50.350;6.576;2023-06-14T12:54:53;96185.16;;;27.06;25.35
23229;BME280;11783;50.350;6.576;2023-06-14T12:57:19;96186.03;;;27.26;24.99
23229;BME280;11783;50.350;6.576;2023-06-14T12:59:44;96192.81;;;27.48;25.42
23229;BME280;11783;50.350;6.576;2023-06-14T13:02:13;96181.38;;;27.58;23.31
23229;BME280;11783;50.350;6.576;2023-06-14T13:04:39;96184.03;;;27.70;24.37
23229;BME280;11783;50.350;6.576;2023-06-14T13:07:05;96185.78;;;27.62;23.12
23229;BME280;11783;50.350;6.576;2023-06-14T13:09:30;96182.09;;;27.55;23.57
23229;BME280;11783;50.350;6.576;2023-06-14T13:11:56;96186.56;;;27.31;24.35
23229;BME280;11783;50.350;6.576;2023-06-14T13:14:21;96188.50;;;27.31;24.53
23229;BME280;11783;50.350;6.576;2023-06-14T13:16:47;96186.56;;;27.31;25.12
23229;BME280;11783;50.350;6.576;2023-06-14T13:19:12;96192.75;;;27.44;24.17